Time;durP1;ratioP1;P1;durP2;ratioP2;P2;SDS_P1;SDS_P2;PMS_P1;PMS_P2;Temp;Humidity;BMP_temperature;BMP_pressure;BME280_temperature;BME280_humidity;BME280_pressure;Samples;Min_cycle;Max_cycle;Signal;HPM_P1;HPM_P2
2023/09/22 00:00:03;;;;;;;17.20;15.43;;;;;;;;;;5078310;28;20495;-79
2023/09/22 00:02:30;;;;;;;17.30;15.70;;;;;;;;;;5078096;28;20073;-79
2023/09/22 00:04:57;;;;;;;16.48;14.90;;;;;;;;;;5078387;28;20048;-79
2023/09/22 00:07:24;;;;;;;15.15;13.75;;;;;;;;;;5061699;28;20136;-79
2023/09/22 00:09:50;;;;;;;15.35;13.77;;;;;;;;;;5061624;28;20484;-79
2023/09/22 00:12:16;;;;;;;15.65;14.27;;;;;;;;;;5078291;28;20040;-79
2023/09/22 00:14:42;;;;;;;14.73;13.45;;;;;;;;;;5061504;28;20047;-79
2023/09/22 00:17:09;;;;;;;13.88;12.68;;;;;;;;;;5078978;28;20350;-79
2023/09/22 00:19:35;;;;;;;13.05;11.93;;;;;;;;;;5078891;28;20052;-79
2023/09/22 00:22:02;;;;;;;13.07;11.98;;;;;;;;;;5061170;28;20548;-79
2023/09/22 00:24:28;;;;;;;13.68;12.50;;;;;;;;;;5078040;28;20043;-79
2023/09/22 00:26:55;;;;;;;13.80;12.60;;;;;;;;;;5077893;28;20044;-78
2023/09/22 00:29:21;;;;;;;12.98;11.98;;;;;;;;;;5078014;28;20093;-79
2023/09/22 00:31:47;;;;;;;13.65;12.35;;;;;;;;;;5061297;28;20094;-79
2023/09/22 00:34:13;;;;;;;12.50;11.40;;;;;;;;;;5077921;28;20055;-79
2023/09/22 00:36:39;;;;;;;13.18;12.18;;;;;;;;;;5062031;28;20197;-78
2023/09/22 00:39:05;;;;;;;12.68;11.65;;;;;;;;;;5077684;28;20056;-78
2023/09/22 00:41:31;;;;;;;12.48;11.38;;;;;;;;;;5077712;28;20495;-79
2023/09/22 00:43:58;;;;;;;13.50;12.32;;;;;;;;;;5077852;28;20051;-78
2023/09/22 00:46:25;;;;;;;12.93;11.90;;;;;;;;;;5077565;28;20051;-79
2023/09/22 00:48:52;;;;;;;14.50;12.27;;;;;;;;;;5078123;28;20046;-78
2023/09/22 00:51:19;;;;;;;13.90;12.50;;;;;;;;;;5077521;28;20048;-79
2023/09/22 00:53:46;;;;;;;14.15;12.77;;;;;;;;;;5060825;28;20500;-78
2023/09/22 00:56:12;;;;;;;14.55;13.25;;;;;;;;;;5077457;28;20051;-80
2023/09/22 00:58:39;;;;;;;13.43;12.27;;;;;;;;;;5078252;28;20052;-79
2023/09/22 01:01:05;;;;;;;14.15;12.93;;;;;;;;;;5060796;28;20043;-79
2023/09/22 01:03:31;;;;;;;13.73;12.57;;;;;;;;;;5060138;28;20059;-78
2023/09/22 01:05:57;;;;;;;13.98;12.77;;;;;;;;;;5061546;28;20169;-79
2023/09/22 01:08:23;;;;;;;14.38;13.20;;;;;;;;;;5077847;28;20048;-79
2023/09/22 01:10:49;;;;;;;13.98;12.77;;;;;;;;;;5060237;28;20056;-79
2023/09/22 01:13:16;;;;;;;15.88;14.48;;;;;;;;;;5077160;28;20036;-79
2023/09/22 01:15:42;;;;;;;15.43;13.90;;;;;;;;;;5077311;28;20101;-79
2023/09/22 01:18:10;;;;;;;14.90;13.70;;;;;;;;;;5077010;28;20130;-79
2023/09/22 01:20:45;;;;;;;15.88;14.23;;;;;;;;;;5060598;28;20383;-78
2023/09/22 01:23:12;;;;;;;15.90;13.57;;;;;;;;;;5076968;28;20044;-79
2023/09/22 01:25:42;;;;;;;15.63;14.27;;;;;;;;;;5077173;28;20044;-78
2023/09/22 01:28:08;;;;;;;15.23;13.82;;;;;;;;;;5076594;28;20091;-79
2023/09/22 01:30:35;;;;;;;16.38;14.77;;;;;;;;;;5076560;28;20048;-78
2023/09/22 01:33:04;;;;;;;17.17;15.50;;;;;;;;;;5077082;28;20071;-79
2023/09/22 01:35:35;;;;;;;16.25;14.70;;;;;;;;;;5060441;28;20059;-78
2023/09/22 01:38:11;;;;;;;17.65;16.10;;;;;;;;;;5060839;28;20094;-78
2023/09/22 01:40:38;;;;;;;17.88;16.15;;;;;;;;;;5059853;28;20134;-79
2023/09/22 01:43:04;;;;;;;18.95;17.15;;;;;;;;;;5076826;28;20132;-79
2023/09/22 01:45:30;;;;;;;18.77;17.10;;;;;;;;;;5076419;28;20055;-79
2023/09/22 01:47:56;;;;;;;22.48;19.15;;;;;;;;;;5076280;28;20533;-78
2023/09/22 01:50:22;;;;;;;18.83;17.17;;;;;;;;;;5077344;28;20218;-79
2023/09/22 01:52:48;;;;;;;18.45;16.83;;;;;;;;;;5077256;28;20044;-79
2023/09/22 01:55:15;;;;;;;19.98;17.98;;;;;;;;;;5059760;28;20487;-79
2023/09/22 01:57:41;;;;;;;20.40;18.40;;;;;;;;;;5077138;28;20369;-79
2023/09/22 02:00:07;;;;;;;19.23;17.42;;;;;;;;;;5059667;28;20048;-79
2023/09/22 02:02:34;;;;;;;21.02;18.88;;;;;;;;;;5075710;28;20044;-78
2023/09/22 02:05:04;;;;;;;21.95;19.73;;;;;;;;;;5043081;28;20056;-79
2023/09/22 02:07:30;;;;;;;21.38;19.38;;;;;;;;;;5059162;28;20074;-79
2023/09/22 02:09:56;;;;;;;21.55;19.45;;;;;;;;;;5059634;28;20040;-79
2023/09/22 02:12:23;;;;;;;23.63;21.20;;;;;;;;;;5076422;28;20043;-79
2023/09/22 02:14:49;;;;;;;22.73;20.30;;;;;;;;;;5059583;28;20472;-79
2023/09/22 02:17:15;;;;;;;22.38;20.38;;;;;;;;;;5076653;28;20392;-79
2023/09/22 02:19:41;;;;;;;25.00;22.70;;;;;;;;;;5076109;28;20076;-79
2023/09/22 02:22:07;;;;;;;23.23;20.92;;;;;;;;;;5076077;28;20060;-79
2023/09/22 02:24:33;;;;;;;21.92;19.83;;;;;;;;;;5075698;28;20040;-79
2023/09/22 02:26:59;;;;;;;22.35;20.15;;;;;;;;;;5059288;28;20044;-79
2023/09/22 02:29:26;;;;;;;21.48;19.55;;;;;;;;;;5076801;28;20044;-79
2023/09/22 02:31:52;;;;;;;21.83;19.73;;;;;;;;;;5059209;28;20047;-79
2023/09/22 02:34:20;;;;;;;21.70;19.67;;;;;;;;;;5093738;28;20051;-79
2023/09/22 02:36:47;;;;;;;23.42;21.17;;;;;;;;;;5059582;28;20040;-78
2023/09/22 02:39:13;;;;;;;24.10;21.70;;;;;;;;;;5076762;28;20036;-79
2023/09/22 02:41:39;;;;;;;23.20;20.98;;;;;;;;;;5075900;28;20472;-79
2023/09/22 02:44:08;;;;;;;23.05;20.80;;;;;;;;;;5076506;28;20079;-79
2023/09/22 02:46:35;;;;;;;23.08;20.77;;;;;;;;;;5062283;28;20480;-79
2023/09/22 02:49:01;;;;;;;24.08;21.73;;;;;;;;;;5079578;28;20149;-79
2023/09/22 02:51:27;;;;;;;22.65;20.58;;;;;;;;;;5079860;28;20498;-79
2023/09/22 02:53:56;;;;;;;24.50;21.85;;;;;;;;;;5080630;28;20063;-79
2023/09/22 02:56:24;;;;;;;24.08;21.67;;;;;;;;;;5063905;28;20052;-79
2023/09/22 02:58:50;;;;;;;23.00;20.63;;;;;;;;;;5079768;28;20098;-78
2023/09/22 03:01:16;;;;;;;22.85;20.65;;;;;;;;;;5097514;28;20048;-79
2023/09/22 03:03:43;;;;;;;23.77;21.10;;;;;;;;;;5033042;28;20110;-79
2023/09/22 03:06:13;;;;;;;24.08;21.75;;;;;;;;;;5059725;28;20073;-79
2023/09/22 03:08:39;;;;;;;22.75;20.55;;;;;;;;;;5059211;28;20044;-80
2023/09/22 03:11:05;;;;;;;20.70;18.70;;;;;;;;;;5059425;28;20131;-78
2023/09/22 03:13:32;;;;;;;21.15;19.05;;;;;;;;;;5059039;28;20480;-79
2023/09/22 03:16:00;;;;;;;20.42;18.45;;;;;;;;;;5042372;28;20084;-79
2023/09/22 03:18:27;;;;;;;21.35;19.23;;;;;;;;;;5058993;28;20496;-79
2023/09/22 03:20:53;;;;;;;18.67;16.95;;;;;;;;;;5059439;28;20439;-79
2023/09/22 03:23:19;;;;;;;19.58;17.70;;;;;;;;;;5059231;28;20055;-79
2023/09/22 03:25:47;;;;;;;17.13;15.52;;;;;;;;;;5059760;28;20365;-78
2023/09/22 03:28:13;;;;;;;18.65;16.88;;;;;;;;;;5043073;28;20041;-79
2023/09/22 03:30:40;;;;;;;17.88;16.02;;;;;;;;;;5059035;28;20040;-80
2023/09/22 03:33:06;;;;;;;17.30;15.55;;;;;;;;;;5059252;28;20057;-78
2023/09/22 03:35:32;;;;;;;17.98;16.27;;;;;;;;;;5059811;28;20041;-79
2023/09/22 03:37:58;;;;;;;18.55;16.75;;;;;;;;;;5042651;28;20051;-79
2023/09/22 03:40:40;;;;;;;16.33;14.73;;;;;;;;;;5059431;28;20044;-79
2023/09/22 03:43:07;;;;;;;16.80;15.20;;;;;;;;;;5058837;28;20053;-79
2023/09/22 03:45:33;;;;;;;19.00;16.60;;;;;;;;;;5058749;28;20052;-79
2023/09/22 03:47:59;;;;;;;19.13;17.20;;;;;;;;;;5058508;28;20507;-79
2023/09/22 03:50:25;;;;;;;18.83;16.80;;;;;;;;;;5058737;28;20099;-79
2023/09/22 03:52:51;;;;;;;21.15;19.00;;;;;;;;;;5041945;28;20080;-79
2023/09/22 03:55:17;;;;;;;20.45;18.30;;;;;;;;;;5042761;28;20041;-80
2023/09/22 03:57:43;;;;;;;21.27;18.77;;;;;;;;;;5058359;28;20044;-79
2023/09/22 04:00:17;;;;;;;22.42;20.08;;;;;;;;;;5059363;28;20049;-79
2023/09/22 04:02:44;;;;;;;22.10;19.30;;;;;;;;;;5063978;28;20059;-79
2023/09/22 04:05:13;;;;;;;23.42;21.23;;;;;;;;;;5078168;28;20056;-79
2023/09/22 04:07:40;;;;;;;24.58;22.02;;;;;;;;;;5061177;28;20392;-79
2023/09/22 04:10:08;;;;;;;24.92;22.45;;;;;;;;;;5060466;28;20083;-79
2023/09/22 04:12:37;;;;;;;25.23;22.55;;;;;;;;;;5077092;28;20044;-79
2023/09/22 04:15:04;;;;;;;26.27;23.55;;;;;;;;;;5076963;28;20091;-79
2023/09/22 04:17:34;;;;;;;25.10;21.95;;;;;;;;;;5077076;28;20048;-78
2023/09/22 04:20:00;;;;;;;26.80;24.05;;;;;;;;;;5060340;28;20055;-79
2023/09/22 04:22:28;;;;;;;28.85;26.05;;;;;;;;;;5076726;28;20562;-79
2023/09/22 04:25:00;;;;;;;27.77;24.98;;;;;;;;;;5077792;28;20055;-79
2023/09/22 04:27:32;;;;;;;31.13;26.75;;;;;;;;;;5076906;28;20087;-79
2023/09/22 04:29:59;;;;;;;29.08;25.92;;;;;;;;;;5077206;28;20048;-78
2023/09/22 04:32:25;;;;;;;29.90;27.00;;;;;;;;;;5077708;28;20400;-79
2023/09/22 04:34:53;;;;;;;30.08;26.98;;;;;;;;;;5043618;28;20052;-79
2023/09/22 04:37:19;;;;;;;33.28;29.60;;;;;;;;;;5060285;28;20051;-79
2023/09/22 04:39:45;;;;;;;31.75;28.40;;;;;;;;;;5059751;28;20048;-79
2023/09/22 04:42:11;;;;;;;35.17;31.42;;;;;;;;;;5076391;28;20044;-79
2023/09/22 04:44:37;;;;;;;32.65;29.17;;;;;;;;;;5076642;28;20094;-79
2023/09/22 04:47:03;;;;;;;34.22;30.63;;;;;;;;;;5077424;28;20075;-79
2023/09/22 04:49:29;;;;;;;36.03;32.17;;;;;;;;;;5060698;28;20048;-79
2023/09/22 04:51:56;;;;;;;34.75;30.88;;;;;;;;;;5060089;28;20135;-79
2023/09/22 04:54:22;;;;;;;34.90;31.42;;;;;;;;;;5076567;28;20051;-79
2023/09/22 04:56:48;;;;;;;31.45;28.05;;;;;;;;;;5076433;28;20048;-79
2023/09/22 04:59:17;;;;;;;35.85;32.08;;;;;;;;;;5059849;28;20572;-79
2023/09/22 05:01:43;;;;;;;35.83;31.98;;;;;;;;;;5043673;28;20056;-79
2023/09/22 05:04:09;;;;;;;36.90;33.00;;;;;;;;;;5036842;28;1129429;-78
2023/09/22 05:06:36;;;;;;;36.75;32.67;;;;;;;;;;5060567;28;20052;-79
2023/09/22 05:09:03;;;;;;;37.40;33.38;;;;;;;;;;5076878;28;20043;-79
2023/09/22 05:11:29;;;;;;;35.40;31.67;;;;;;;;;;5060783;28;20131;-78
2023/09/22 05:13:56;;;;;;;37.20;33.13;;;;;;;;;;5076974;28;20083;-79
2023/09/22 05:16:22;;;;;;;33.65;30.05;;;;;;;;;;5060506;28;20051;-79
2023/09/22 05:18:48;;;;;;;35.70;31.33;;;;;;;;;;5077207;28;20055;-78
2023/09/22 05:21:14;;;;;;;38.38;31.45;;;;;;;;;;5076690;28;20476;-79
2023/09/22 05:23:41;;;;;;;37.08;30.30;;;;;;;;;;5077111;28;20036;-79
2023/09/22 05:26:08;;;;;;;34.90;28.95;;;;;;;;;;5076938;28;20480;-79
2023/09/22 05:28:35;;;;;;;31.60;27.85;;;;;;;;;;5076537;28;20048;-79
2023/09/22 05:31:07;;;;;;;34.03;27.42;;;;;;;;;;5076732;28;20451;-80
2023/09/22 05:33:33;;;;;;;29.27;26.08;;;;;;;;;;5076435;28;20150;-79
2023/09/22 05:35:59;;;;;;;32.30;26.20;;;;;;;;;;5077482;28;20124;-78
2023/09/22 05:38:25;;;;;;;31.52;25.33;;;;;;;;;;5076906;28;20070;-79
2023/09/22 05:40:51;;;;;;;26.75;23.05;;;;;;;;;;5060783;28;20135;-78
2023/09/22 05:43:18;;;;;;;28.67;23.85;;;;;;;;;;5059818;28;20507;-79
2023/09/22 05:45:44;;;;;;;23.95;21.35;;;;;;;;;;5076450;28;20048;-78
2023/09/22 05:48:10;;;;;;;21.27;18.27;;;;;;;;;;5076219;28;20043;-78
2023/09/22 05:50:37;;;;;;;23.15;19.45;;;;;;;;;;5059800;28;20055;-78
2023/09/22 05:53:08;;;;;;;23.13;19.98;;;;;;;;;;5076423;28;20097;-78
2023/09/22 05:55:34;;;;;;;24.13;17.88;;;;;;;;;;5060516;28;20047;-79
2023/09/22 05:58:00;;;;;;;24.48;18.92;;;;;;;;;;5076287;28;20052;-78
2023/09/22 06:00:30;;;;;;;22.45;18.60;;;;;;;;;;5076190;28;20040;-78
2023/09/22 06:02:57;;;;;;;22.33;17.25;;;;;;;;;;5076110;28;20092;-78
2023/09/22 06:05:23;;;;;;;22.23;17.85;;;;;;;;;;5059856;28;20066;-78
2023/09/22 06:07:50;;;;;;;20.38;16.50;;;;;;;;;;5093984;28;20050;-79
2023/09/22 06:10:16;;;;;;;21.35;17.42;;;;;;;;;;5076137;28;20047;-78
2023/09/22 06:12:42;;;;;;;23.60;17.15;;;;;;;;;;5059496;28;20047;-78
2023/09/22 06:15:10;;;;;;;20.33;16.80;;;;;;;;;;5060142;28;20408;-78
2023/09/22 06:17:37;;;;;;;21.20;15.40;;;;;;;;;;5094410;28;20418;-78
2023/09/22 06:20:13;;;;;;;20.52;15.88;;;;;;;;;;5059315;28;20048;-78
2023/09/22 06:22:39;;;;;;;21.73;15.38;;;;;;;;;;5075971;28;20047;-78
2023/09/22 06:25:05;;;;;;;21.30;14.07;;;;;;;;;;5075966;28;20051;-77
2023/09/22 06:27:32;;;;;;;20.35;14.50;;;;;;;;;;5076100;28;20160;-79
2023/09/22 06:29:58;;;;;;;17.70;14.18;;;;;;;;;;5059410;28;20044;-78
2023/09/22 06:32:32;;;;;;;20.27;13.88;;;;;;;;;;5075608;28;20051;-78
2023/09/22 06:34:58;;;;;;;17.75;14.68;;;;;;;;;;5076739;28;20047;-78
2023/09/22 06:37:24;;;;;;;16.33;13.30;;;;;;;;;;5076701;28;20040;-78
2023/09/22 06:39:51;;;;;;;19.75;14.75;;;;;;;;;;5076352;28;20461;-78
2023/09/22 06:42:17;;;;;;;17.00;13.63;;;;;;;;;;5076605;28;20066;-78
2023/09/22 06:44:43;;;;;;;16.75;13.00;;;;;;;;;;5075703;28;20041;-78
2023/09/22 06:47:10;;;;;;;17.75;13.73;;;;;;;;;;5059793;28;20467;-78
2023/09/22 06:49:36;;;;;;;15.10;13.50;;;;;;;;;;5075472;28;20127;-78
2023/09/22 06:52:02;;;;;;;18.63;13.80;;;;;;;;;;5075834;28;20044;-77
2023/09/22 06:54:28;;;;;;;16.42;14.00;;;;;;;;;;5059028;28;20051;-78
2023/09/22 06:56:54;;;;;;;17.65;13.90;;;;;;;;;;5075986;28;20043;-78
2023/09/22 06:59:22;;;;;;;17.27;13.95;;;;;;;;;;5075395;28;20056;-78
2023/09/22 07:01:48;;;;;;;15.00;13.00;;;;;;;;;;5058988;28;20101;-79
2023/09/22 07:04:14;;;;;;;15.95;12.65;;;;;;;;;;5075157;28;20324;-78
2023/09/22 07:06:41;;;;;;;16.80;12.75;;;;;;;;;;5042659;28;20369;-78
2023/09/22 07:09:11;;;;;;;13.50;12.18;;;;;;;;;;5075325;28;20040;-78
2023/09/22 07:11:40;;;;;;;12.88;11.32;;;;;;;;;;5075483;28;20040;-78
2023/09/22 07:14:07;;;;;;;18.33;12.32;;;;;;;;;;5075454;28;20051;-79
2023/09/22 07:16:34;;;;;;;15.70;11.85;;;;;;;;;;5075132;28;20134;-78
2023/09/22 07:19:00;;;;;;;18.35;12.48;;;;;;;;;;5075406;28;20063;-78
2023/09/22 07:21:27;;;;;;;15.52;11.95;;;;;;;;;;5075216;28;20471;-78
2023/09/22 07:23:55;;;;;;;13.55;11.55;;;;;;;;;;5075703;28;20392;-78
2023/09/22 07:26:22;;;;;;;15.80;12.57;;;;;;;;;;5059173;28;20059;-78
2023/09/22 07:28:49;;;;;;;14.68;11.18;;;;;;;;;;5075111;28;20061;-78
2023/09/22 07:31:18;;;;;;;12.55;11.20;;;;;;;;;;5075760;28;20048;-78
2023/09/22 07:33:44;;;;;;;15.75;11.65;;;;;;;;;;5079865;28;20070;-78
2023/09/22 07:36:11;;;;;;;12.13;10.88;;;;;;;;;;5079229;28;20044;-78
2023/09/22 07:38:37;;;;;;;12.40;11.13;;;;;;;;;;5096864;28;20483;-78
2023/09/22 07:41:04;;;;;;;12.10;10.75;;;;;;;;;;5078883;28;20090;-78
2023/09/22 07:43:30;;;;;;;12.63;10.02;;;;;;;;;;5061876;28;20109;-78
2023/09/22 07:46:03;;;;;;;10.88;9.77;;;;;;;;;;5078745;28;20048;-78
2023/09/22 07:48:30;;;;;;;12.65;9.93;;;;;;;;;;5079387;28;20051;-78
2023/09/22 07:50:56;;;;;;;14.30;9.70;;;;;;;;;;5062896;28;20048;-78
2023/09/22 07:53:25;;;;;;;13.05;9.65;;;;;;;;;;5078675;28;20052;-79
2023/09/22 07:55:55;;;;;;;12.48;8.60;;;;;;;;;;5078664;28;20519;-79
2023/09/22 07:58:22;;;;;;;10.50;8.05;;;;;;;;;;5078575;28;20130;-78
2023/09/22 08:00:48;;;;;;;8.32;7.25;;;;;;;;;;5078508;28;20502;-79
2023/09/22 08:03:14;;;;;;;8.25;5.97;;;;;;;;;;5061529;28;20547;-79
2023/09/22 08:05:41;;;;;;;8.20;5.25;;;;;;;;;;5061826;28;20484;-79
2023/09/22 08:08:07;;;;;;;6.50;5.88;;;;;;;;;;5078215;28;20039;-78
2023/09/22 08:10:33;;;;;;;8.05;6.18;;;;;;;;;;5078649;28;20044;-79
2023/09/22 08:13:00;;;;;;;8.63;5.95;;;;;;;;;;5061333;28;20084;-78
2023/09/22 08:15:26;;;;;;;7.25;5.30;;;;;;;;;;5061743;28;20051;-79
2023/09/22 08:17:52;;;;;;;7.05;5.70;;;;;;;;;;5062029;28;20052;-79
2023/09/22 08:20:19;;;;;;;6.43;4.63;;;;;;;;;;5078462;28;20052;-79
2023/09/22 08:22:47;;;;;;;6.63;4.30;;;;;;;;;;5078463;28;20508;-79
2023/09/22 08:25:13;;;;;;;5.30;4.45;;;;;;;;;;5045414;28;20503;-79
2023/09/22 08:27:40;;;;;;;5.63;4.00;;;;;;;;;;5061263;28;20074;-78
2023/09/22 08:30:11;;;;;;;5.72;3.42;;;;;;;;;;5061543;28;20051;-79
2023/09/22 08:32:39;;;;;;;3.72;3.03;;;;;;;;;;5061302;28;20048;-79
2023/09/22 08:35:06;;;;;;;3.75;2.88;;;;;;;;;;5077852;28;20052;-78
2023/09/22 08:37:33;;;;;;;4.90;3.35;;;;;;;;;;5077845;28;20051;-78
2023/09/22 08:40:01;;;;;;;3.30;3.10;;;;;;;;;;5077736;28;20476;-79
2023/09/22 08:42:27;;;;;;;3.58;3.17;;;;;;;;;;5076915;28;20055;-79
2023/09/22 08:44:53;;;;;;;3.65;2.33;;;;;;;;;;5077002;28;20036;-78
2023/09/22 08:47:21;;;;;;;2.95;1.27;;;;;;;;;;5078477;28;20108;-78
2023/09/22 08:49:47;;;;;;;3.10;1.10;;;;;;;;;;5077631;28;20499;-79
2023/09/22 08:52:13;;;;;;;2.65;0.75;;;;;;;;;;5077346;28;20048;-79
2023/09/22 08:54:39;;;;;;;2.28;0.60;;;;;;;;;;5077578;28;20047;-79
2023/09/22 08:57:06;;;;;;;3.03;0.80;;;;;;;;;;5077500;28;20044;-79
2023/09/22 08:59:32;;;;;;;1.27;0.50;;;;;;;;;;5061732;28;20361;-79
2023/09/22 09:01:58;;;;;;;3.65;0.77;;;;;;;;;;5060761;28;20521;-79
2023/09/22 09:04:41;;;;;;;2.03;0.70;;;;;;;;;;5077100;28;20131;-79
2023/09/22 09:07:07;;;;;;;4.50;0.55;;;;;;;;;;5078057;28;20047;-78
2023/09/22 09:09:43;;;;;;;3.08;0.65;;;;;;;;;;5077203;28;20048;-78
2023/09/22 09:12:10;;;;;;;3.47;0.40;;;;;;;;;;5077148;28;20048;-79
2023/09/22 09:14:38;;;;;;;3.72;0.50;;;;;;;;;;5060562;28;20391;-79
2023/09/22 09:17:18;;;;;;;3.03;0.50;;;;;;;;;;5077300;28;20392;-79
2023/09/22 09:19:46;;;;;;;1.70;0.40;;;;;;;;;;5077028;28;20150;-79
2023/09/22 09:22:14;;;;;;;2.33;0.45;;;;;;;;;;5060373;28;20048;-79
2023/09/22 09:24:41;;;;;;;3.53;0.47;;;;;;;;;;5060158;28;20105;-79
2023/09/22 09:27:21;;;;;;;1.75;0.50;;;;;;;;;;5076799;28;20434;-78
2023/09/22 09:29:50;;;;;;;2.70;0.50;;;;;;;;;;5076799;28;20044;-79
2023/09/22 09:32:26;;;;;;;2.38;0.50;;;;;;;;;;5076699;28;20056;-79
2023/09/22 09:34:52;;;;;;;2.78;0.85;;;;;;;;;;5077019;28;20048;-79
2023/09/22 09:37:19;;;;;;;2.38;0.60;;;;;;;;;;5060482;28;20048;-79
2023/09/22 09:39:58;;;;;;;2.47;0.70;;;;;;;;;;5060465;28;20074;-79
2023/09/22 09:42:25;;;;;;;1.20;0.40;;;;;;;;;;5077448;28;20139;-79
2023/09/22 09:44:52;;;;;;;2.10;0.28;;;;;;;;;;5076559;28;20080;-79
2023/09/22 09:47:30;;;;;;;2.85;0.28;;;;;;;;;;5094340;28;20048;-79
2023/09/22 09:49:57;;;;;;;2.72;0.20;;;;;;;;;;5077258;28;20052;-79
2023/09/22 09:52:44;;;;;;;2.60;0.30;;;;;;;;;;5076151;28;20048;-79
2023/09/22 09:55:10;;;;;;;1.17;0.30;;;;;;;;;;5076623;28;20048;-79
2023/09/22 09:57:38;;;;;;;0.52;0.30;;;;;;;;;;5076303;28;20506;-78
2023/09/22 10:00:13;;;;;;;0.70;0.25;;;;;;;;;;5075968;28;20052;-79
2023/09/22 10:02:43;;;;;;;1.33;0.20;;;;;;;;;;5059136;28;20423;-79
2023/09/22 10:05:23;;;;;;;1.40;0.20;;;;;;;;;;5056266;28;20052;-79
2023/09/22 10:07:50;;;;;;;1.30;0.30;;;;;;;;;;5056343;28;20053;-79
2023/09/22 10:10:17;;;;;;;1.13;0.20;;;;;;;;;;5056173;28;20040;-79
2023/09/22 10:12:44;;;;;;;2.45;0.30;;;;;;;;;;5039488;28;20047;-79
2023/09/22 10:15:11;;;;;;;1.25;0.22;;;;;;;;;;5039394;28;20470;-79
2023/09/22 10:17:38;;;;;;;0.82;0.20;;;;;;;;;;5056840;28;20049;-79
2023/09/22 10:20:11;;;;;;;0.70;0.20;;;;;;;;;;5039684;28;20055;-79
2023/09/22 10:22:41;;;;;;;1.88;0.30;;;;;;;;;;5056370;28;20052;-79
2023/09/22 10:25:13;;;;;;;1.27;0.20;;;;;;;;;;5040247;28;20482;-78
2023/09/22 10:27:56;;;;;;;2.35;0.40;;;;;;;;;;5055923;28;20051;-78
2023/09/22 10:30:25;;;;;;;1.33;0.45;;;;;;;;;;5073648;28;20084;-78
2023/09/22 10:33:11;;;;;;;2.58;0.30;;;;;;;;;;5039685;28;20041;-78
2023/09/22 10:35:40;;;;;;;0.50;0.30;;;;;;;;;;5055748;28;20044;-79
2023/09/22 10:38:09;;;;;;;0.73;0.20;;;;;;;;;;5056594;28;20052;-79
2023/09/22 10:40:36;;;;;;;1.95;0.20;;;;;;;;;;5055775;28;20058;-79
2023/09/22 10:43:03;;;;;;;0.63;0.13;;;;;;;;;;5056123;28;20044;-78
2023/09/22 10:45:29;;;;;;;0.68;0.20;;;;;;;;;;5039083;28;20075;-78
2023/09/22 10:47:58;;;;;;;0.85;0.20;;;;;;;;;;5038988;28;20049;-78
2023/09/22 10:50:32;;;;;;;0.95;0.10;;;;;;;;;;5055380;28;20044;-79
2023/09/22 10:53:01;;;;;;;1.67;0.43;;;;;;;;;;5056571;28;20049;-79
2023/09/22 10:55:30;;;;;;;1.98;0.10;;;;;;;;;;5039027;28;20052;-79
2023/09/22 10:57:56;;;;;;;1.77;0.22;;;;;;;;;;5055362;28;20489;-79
2023/09/22 11:00:23;;;;;;;1.50;0.13;;;;;;;;;;5056034;28;20127;-79
2023/09/22 11:02:49;;;;;;;0.73;0.20;;;;;;;;;;5042733;28;20106;-79
2023/09/22 11:05:19;;;;;;;0.70;0.10;;;;;;;;;;5058901;28;20458;-79
2023/09/22 11:07:46;;;;;;;0.60;0.20;;;;;;;;;;5078386;28;20131;-79
2023/09/22 11:10:22;;;;;;;0.38;0.10;;;;;;;;;;5063635;28;20075;-79
2023/09/22 11:12:49;;;;;;;1.25;0.20;;;;;;;;;;5062883;28;20408;-79
2023/09/22 11:15:15;;;;;;;1.63;0.20;;;;;;;;;;5079371;28;20496;-79
2023/09/22 11:17:46;;;;;;;0.70;0.10;;;;;;;;;;5062717;28;20048;-79
2023/09/22 11:20:16;;;;;;;1.95;0.10;;;;;;;;;;5080222;28;20044;-79
2023/09/22 11:22:43;;;;;;;0.93;0.10;;;;;;;;;;5079376;28;20485;-79
2023/09/22 11:25:10;;;;;;;0.40;0.10;;;;;;;;;;5079544;28;20052;-79
2023/09/22 11:27:49;;;;;;;0.80;0.10;;;;;;;;;;5063131;28;20040;-80
2023/09/22 11:30:25;;;;;;;3.40;0.20;;;;;;;;;;5079163;28;20441;-78
2023/09/22 11:32:51;;;;;;;0.88;0.10;;;;;;;;;;5062727;28;20056;-79
2023/09/22 11:35:37;;;;;;;1.55;0.10;;;;;;;;;;5063339;28;20048;-78
2023/09/22 11:38:21;;;;;;;0.52;0.10;;;;;;;;;;5079356;28;20403;-78
2023/09/22 11:40:47;;;;;;;2.05;0.10;;;;;;;;;;5079241;28;20136;-79
2023/09/22 11:43:13;;;;;;;2.15;0.30;;;;;;;;;;5062347;28;20051;-79
2023/09/22 11:45:39;;;;;;;0.65;0.10;;;;;;;;;;5062248;28;20078;-79
2023/09/22 11:48:06;;;;;;;2.30;0.20;;;;;;;;;;5078708;28;20399;-79
2023/09/22 11:50:32;;;;;;;0.60;0.10;;;;;;;;;;5062429;28;20052;-79
2023/09/22 11:53:09;;;;;;;0.57;0.10;;;;;;;;;;5078967;28;20044;-79
2023/09/22 11:55:35;;;;;;;0.50;0.10;;;;;;;;;;5061986;28;20151;-79
2023/09/22 11:58:01;;;;;;;0.40;0.10;;;;;;;;;;5078638;28;20083;-78
2023/09/22 12:00:28;;;;;;;0.47;0.10;;;;;;;;;;5078573;28;20467;-79
2023/09/22 12:02:55;;;;;;;1.42;0.10;;;;;;;;;;5061352;28;20438;-78
2023/09/22 12:05:21;;;;;;;1.65;0.20;;;;;;;;;;5058141;28;20044;-78
2023/09/22 12:07:47;;;;;;;0.60;0.20;;;;;;;;;;5058306;28;20499;-79
2023/09/22 12:10:13;;;;;;;0.30;0.20;;;;;;;;;;5041441;28;20101;-78
2023/09/22 12:12:39;;;;;;;0.52;0.10;;;;;;;;;;5041705;28;20036;-79
2023/09/22 12:15:05;;;;;;;0.80;0.20;;;;;;;;;;5041956;28;20454;-78
2023/09/22 12:17:32;;;;;;;1.15;0.20;;;;;;;;;;5057922;28;20083;-78
2023/09/22 12:19:58;;;;;;;0.57;0.10;;;;;;;;;;5042503;28;20048;-78
2023/09/22 12:22:24;;;;;;;1.30;0.20;;;;;;;;;;5058197;28;20036;-78
2023/09/22 12:24:50;;;;;;;0.50;0.20;;;;;;;;;;5058407;28;20048;-78
2023/09/22 12:27:16;;;;;;;1.17;0.10;;;;;;;;;;5058770;28;20366;-78
2023/09/22 12:29:43;;;;;;;0.60;0.10;;;;;;;;;;5042000;28;20049;-79
2023/09/22 12:32:10;;;;;;;0.73;0.10;;;;;;;;;;5057965;28;20141;-78
2023/09/22 12:34:36;;;;;;;0.50;0.20;;;;;;;;;;5041537;28;20052;-79
2023/09/22 12:37:02;;;;;;;1.70;0.10;;;;;;;;;;5057701;28;20131;-79
2023/09/22 12:39:29;;;;;;;1.73;0.20;;;;;;;;;;5057902;28;20051;-78
2023/09/22 12:41:55;;;;;;;0.52;0.10;;;;;;;;;;5057736;28;20500;-78
2023/09/22 12:44:24;;;;;;;0.20;0.00;;;;;;;;;;5041188;28;20058;-79
2023/09/22 12:46:50;;;;;;;0.63;0.10;;;;;;;;;;5057909;28;20059;-78
2023/09/22 12:49:17;;;;;;;0.40;0.10;;;;;;;;;;5057404;28;20082;-78
2023/09/22 12:51:43;;;;;;;1.35;0.10;;;;;;;;;;5057570;28;20048;-78
2023/09/22 12:54:09;;;;;;;0.63;0.10;;;;;;;;;;5041038;28;20439;-78
2023/09/22 12:56:35;;;;;;;0.28;0.10;;;;;;;;;;5057155;28;20139;-78
2023/09/22 12:59:02;;;;;;;1.15;0.10;;;;;;;;;;5057490;28;20049;-78
2023/09/22 13:01:28;;;;;;;1.02;0.10;;;;;;;;;;5040523;28;20049;-78
2023/09/22 13:03:54;;;;;;;1.42;0.10;;;;;;;;;;5065689;28;20052;-78
2023/09/22 13:06:20;;;;;;;0.30;0.10;;;;;;;;;;5077379;28;20109;-78
2023/09/22 13:08:46;;;;;;;0.45;0.13;;;;;;;;;;5060244;28;20048;-78
2023/09/22 13:11:18;;;;;;;2.00;0.10;;;;;;;;;;5060583;28;20056;-78
2023/09/22 13:13:45;;;;;;;0.22;0.10;;;;;;;;;;5077204;28;20048;-78
2023/09/22 13:16:11;;;;;;;0.77;0.10;;;;;;;;;;5076744;28;20044;-78
2023/09/22 13:18:37;;;;;;;0.88;0.10;;;;;;;;;;5077097;28;20138;-78
2023/09/22 13:21:10;;;;;;;0.73;0.10;;;;;;;;;;5077857;28;20071;-78
2023/09/22 13:23:37;;;;;;;1.83;0.20;;;;;;;;;;5077833;28;20052;-78
2023/09/22 13:26:04;;;;;;;0.30;0.10;;;;;;;;;;5076957;28;20365;-78
2023/09/22 13:28:30;;;;;;;2.25;0.17;;;;;;;;;;5076588;28;20173;-78
2023/09/22 13:30:56;;;;;;;0.40;0.10;;;;;;;;;;5077184;28;20383;-78
2023/09/22 13:33:25;;;;;;;0.43;0.10;;;;;;;;;;5076710;28;20131;-78
2023/09/22 13:35:52;;;;;;;0.75;0.10;;;;;;;;;;5076681;28;20395;-78
2023/09/22 13:38:19;;;;;;;0.80;0.17;;;;;;;;;;5077156;28;20052;-78
2023/09/22 13:40:46;;;;;;;0.68;0.10;;;;;;;;;;5076900;28;20498;-79
2023/09/22 13:43:12;;;;;;;0.63;0.20;;;;;;;;;;5076630;28;20044;-78
2023/09/22 13:45:39;;;;;;;0.68;0.10;;;;;;;;;;5077291;28;20097;-78
2023/09/22 13:48:06;;;;;;;0.40;0.10;;;;;;;;;;5060145;28;20412;-78
2023/09/22 13:50:32;;;;;;;0.60;0.10;;;;;;;;;;5060616;28;20055;-79
2023/09/22 13:52:58;;;;;;;0.77;0.10;;;;;;;;;;5076716;28;20055;-78
2023/09/22 13:55:24;;;;;;;2.78;0.10;;;;;;;;;;5059808;28;20116;-78
2023/09/22 13:57:51;;;;;;;1.40;0.10;;;;;;;;;;5077146;28;20048;-78
2023/09/22 14:00:18;;;;;;;0.30;0.10;;;;;;;;;;5076375;28;20044;-78
2023/09/22 14:02:44;;;;;;;0.70;0.20;;;;;;;;;;5059203;28;20059;-78
2023/09/22 14:05:10;;;;;;;0.98;0.13;;;;;;;;;;5075341;28;20059;-79
2023/09/22 14:07:40;;;;;;;1.88;0.20;;;;;;;;;;5076192;28;20083;-78
2023/09/22 14:10:08;;;;;;;2.05;0.10;;;;;;;;;;5094012;28;20059;-79
2023/09/22 14:12:34;;;;;;;0.32;0.20;;;;;;;;;;5059408;28;20484;-78
2023/09/22 14:15:00;;;;;;;1.15;0.10;;;;;;;;;;5059467;28;20144;-79
2023/09/22 14:17:26;;;;;;;0.70;0.20;;;;;;;;;;5059378;28;20055;-78
2023/09/22 14:19:52;;;;;;;1.05;0.10;;;;;;;;;;5075620;28;20624;-78
2023/09/22 14:22:18;;;;;;;1.48;0.20;;;;;;;;;;5076340;28;20480;-79
2023/09/22 14:24:46;;;;;;;0.73;0.20;;;;;;;;;;5075765;28;20522;-79
2023/09/22 14:27:16;;;;;;;2.25;0.20;;;;;;;;;;5075672;28;20165;-78
2023/09/22 14:29:42;;;;;;;0.55;0.15;;;;;;;;;;5075862;28;20484;-78